sensor_id;sensor_type;location;lat;lon;timestamp;P1;durP1;ratioP1;P2;durP2;ratioP2
54657;SDS011;56972;43.886;20.354;2022-09-02T00:00:52;4.85;;;2.70;;
54657;SDS011;56972;43.886;20.354;2022-09-02T00:03:19;4.78;;;2.28;;
54657;SDS011;56972;43.886;20.354;2022-09-02T00:05:45;3.17;;;2.25;;
54657;SDS011;56972;43.886;20.354;2022-09-02T00:08:12;3.15;;;2.30;;
54657;SDS011;56972;43.886;20.354;2022-09-02T00:10:39;4.30;;;3.10;;
54657;SDS011;56972;43.886;20.354;2022-09-02T00:13:06;2.85;;;2.22;;
54657;SDS011;56972;43.886;20.354;2022-09-02T00:15:33;5.50;;;3.03;;
54657;SDS011;56972;43.886;20.354;2022-09-02T00:17:59;4.15;;;2.55;;
54657;SDS011;56972;43.886;20.354;2022-09-02T00:20:26;3.95;;;2.70;;
54657;SDS011;56972;43.886;20.354;2022-09-02T00:22:52;3.30;;;2.20;;
54657;SDS011;56972;43.886;20.354;2022-09-02T00:25:19;4.20;;;2.70;;
54657;SDS011;56972;43.886;20.354;2022-09-02T00:27:45;4.70;;;2.60;;
54657;SDS011;56972;43.886;20.354;2022-09-02T00:30:11;3.53;;;3.05;;
54657;SDS011;56972;43.886;20.354;2022-09-02T00:32:38;3.03;;;1.90;;
54657;SDS011;56972;43.886;20.354;2022-09-02T00:35:04;6.22;;;3.67;;
54657;SDS011;56972;43.886;20.354;2022-09-02T00:37:31;3.63;;;2.47;;
54657;SDS011;56972;43.886;20.354;2022-09-02T00:39:57;11.48;;;3.28;;
54657;SDS011;56972;43.886;20.354;2022-09-02T00:42:23;4.78;;;2.33;;
54657;SDS011;56972;43.886;20.354;2022-09-02T00:44:50;2.85;;;2.22;;
54657;SDS011;56972;43.886;20.354;2022-09-02T00:47:16;3.38;;;2.20;;
54657;SDS011;56972;43.886;20.354;2022-09-02T00:49:43;3.33;;;2.35;;
54657;SDS011;56972;43.886;20.354;2022-09-02T00:52:20;4.78;;;2.15;;
54657;SDS011;56972;43.886;20.354;2022-09-02T00:55:30;2.78;;;1.95;;
54657;SDS011;56972;43.886;20.354;2022-09-02T00:57:40;3.22;;;2.08;;
54657;SDS011;56972;43.886;20.354;2022-09-02T01:00:13;2.88;;;1.90;;
54657;SDS011;56972;43.886;20.354;2022-09-02T01:02:42;3.10;;;1.90;;
54657;SDS011;56972;43.886;20.354;2022-09-02T01:05:09;3.28;;;2.28;;
54657;SDS011;56972;43.886;20.354;2022-09-02T01:07:37;3.17;;;2.47;;
54657;SDS011;56972;43.886;20.354;2022-09-02T01:10:05;2.72;;;2.22;;
54657;SDS011;56972;43.886;20.354;2022-09-02T01:12:31;4.82;;;2.92;;
54657;SDS011;56972;43.886;20.354;2022-09-02T01:14:58;4.32;;;2.78;;
54657;SDS011;56972;43.886;20.354;2022-09-02T01:17:24;4.78;;;3.38;;
54657;SDS011;56972;43.886;20.354;2022-09-02T01:19:52;6.35;;;3.30;;
54657;SDS011;56972;43.886;20.354;2022-09-02T01:22:21;3.78;;;2.92;;
54657;SDS011;56972;43.886;20.354;2022-09-02T01:24:47;3.38;;;2.50;;
54657;SDS011;56972;43.886;20.354;2022-09-02T01:27:18;4.13;;;2.97;;
54657;SDS011;56972;43.886;20.354;2022-09-02T01:29:44;3.25;;;2.22;;
54657;SDS011;56972;43.886;20.354;2022-09-02T01:32:11;4.88;;;2.63;;
54657;SDS011;56972;43.886;20.354;2022-09-02T01:34:37;3.20;;;2.35;;
54657;SDS011;56972;43.886;20.354;2022-09-02T01:37:03;3.85;;;2.30;;
54657;SDS011;56972;43.886;20.354;2022-09-02T01:39:29;3.47;;;2.30;;
54657;SDS011;56972;43.886;20.354;2022-09-02T01:41:55;4.25;;;2.90;;
54657;SDS011;56972;43.886;20.354;2022-09-02T01:44:21;4.63;;;2.78;;
54657;SDS011;56972;43.886;20.354;2022-09-02T01:46:49;4.25;;;3.55;;
54657;SDS011;56972;43.886;20.354;2022-09-02T01:49:15;4.75;;;3.17;;
54657;SDS011;56972;43.886;20.354;2022-09-02T01:51:41;5.07;;;3.70;;
54657;SDS011;56972;43.886;20.354;2022-09-02T01:54:07;6.25;;;3.35;;
54657;SDS011;56972;43.886;20.354;2022-09-02T01:56:33;4.65;;;3.47;;
54657;SDS011;56972;43.886;20.354;2022-09-02T01:58:59;4.78;;;3.80;;
54657;SDS011;56972;43.886;20.354;2022-09-02T02:01:26;5.90;;;3.72;;
54657;SDS011;56972;43.886;20.354;2022-09-02T02:03:52;5.68;;;3.95;;
54657;SDS011;56972;43.886;20.354;2022-09-02T02:06:18;6.13;;;3.92;;
54657;SDS011;56972;43.886;20.354;2022-09-02T02:08:45;5.85;;;4.05;;
54657;SDS011;56972;43.886;20.354;2022-09-02T02:11:16;6.13;;;4.45;;
54657;SDS011;56972;43.886;20.354;2022-09-02T02:13:43;7.43;;;5.00;;
54657;SDS011;56972;43.886;20.354;2022-09-02T02:16:09;7.75;;;5.00;;
54657;SDS011;56972;43.886;20.354;2022-09-02T02:18:35;7.95;;;5.40;;
54657;SDS011;56972;43.886;20.354;2022-09-02T02:21:01;9.45;;;5.88;;
54657;SDS011;56972;43.886;20.354;2022-09-02T02:23:27;7.88;;;4.88;;
54657;SDS011;56972;43.886;20.354;2022-09-02T02:25:53;6.22;;;5.30;;
54657;SDS011;56972;43.886;20.354;2022-09-02T02:28:19;10.30;;;5.68;;
54657;SDS011;56972;43.886;20.354;2022-09-02T02:30:45;7.00;;;6.05;;
54657;SDS011;56972;43.886;20.354;2022-09-02T02:33:12;7.95;;;5.80;;
54657;SDS011;56972;43.886;20.354;2022-09-02T02:35:38;7.90;;;5.15;;
54657;SDS011;56972;43.886;20.354;2022-09-02T02:38:04;6.55;;;5.10;;
54657;SDS011;56972;43.886;20.354;2022-09-02T02:40:31;9.68;;;5.10;;
54657;SDS011;56972;43.886;20.354;2022-09-02T02:42:57;8.65;;;6.15;;
54657;SDS011;56972;43.886;20.354;2022-09-02T02:45:24;6.93;;;5.43;;
54657;SDS011;56972;43.886;20.354;2022-09-02T02:47:50;8.85;;;6.15;;
54657;SDS011;56972;43.886;20.354;2022-09-02T02:50:17;7.35;;;5.25;;
54657;SDS011;56972;43.886;20.354;2022-09-02T02:52:44;5.82;;;4.50;;
54657;SDS011;56972;43.886;20.354;2022-09-02T02:55:10;6.70;;;6.00;;
54657;SDS011;56972;43.886;20.354;2022-09-02T02:57:38;7.00;;;4.95;;
54657;SDS011;56972;43.886;20.354;2022-09-02T03:00:10;9.07;;;5.28;;
54657;SDS011;56972;43.886;20.354;2022-09-02T03:02:36;7.07;;;4.65;;
54657;SDS011;56972;43.886;20.354;2022-09-02T03:05:03;7.20;;;4.40;;
54657;SDS011;56972;43.886;20.354;2022-09-02T03:07:29;6.00;;;4.72;;
54657;SDS011;56972;43.886;20.354;2022-09-02T03:09:55;5.28;;;4.00;;
54657;SDS011;56972;43.886;20.354;2022-09-02T03:12:21;5.45;;;4.15;;
54657;SDS011;56972;43.886;20.354;2022-09-02T03:14:47;9.43;;;6.47;;
54657;SDS011;56972;43.886;20.354;2022-09-02T03:17:13;6.78;;;4.55;;
54657;SDS011;56972;43.886;20.354;2022-09-02T03:19:39;5.55;;;4.03;;
54657;SDS011;56972;43.886;20.354;2022-09-02T03:22:05;7.55;;;4.40;;
54657;SDS011;56972;43.886;20.354;2022-09-02T03:24:31;6.95;;;4.45;;
54657;SDS011;56972;43.886;20.354;2022-09-02T03:26:57;7.20;;;5.40;;
54657;SDS011;56972;43.886;20.354;2022-09-02T03:29:22;4.53;;;3.80;;
54657;SDS011;56972;43.886;20.354;2022-09-02T03:31:48;6.13;;;4.53;;
54657;SDS011;56972;43.886;20.354;2022-09-02T03:34:14;5.43;;;4.30;;
54657;SDS011;56972;43.886;20.354;2022-09-02T03:36:40;6.07;;;4.55;;
54657;SDS011;56972;43.886;20.354;2022-09-02T03:39:09;5.82;;;3.45;;
54657;SDS011;56972;43.886;20.354;2022-09-02T03:41:36;5.25;;;3.67;;
54657;SDS011;56972;43.886;20.354;2022-09-02T03:44:05;4.47;;;3.55;;
54657;SDS011;56972;43.886;20.354;2022-09-02T03:46:31;4.85;;;3.75;;
54657;SDS011;56972;43.886;20.354;2022-09-02T03:48:57;5.75;;;4.28;;
54657;SDS011;56972;43.886;20.354;2022-09-02T03:51:23;4.28;;;3.38;;
54657;SDS011;56972;43.886;20.354;2022-09-02T03:53:50;4.55;;;3.25;;
54657;SDS011;56972;43.886;20.354;2022-09-02T03:56:16;3.47;;;2.58;;
54657;SDS011;56972;43.886;20.354;2022-09-02T03:58:43;6.03;;;2.63;;
54657;SDS011;56972;43.886;20.354;2022-09-02T04:01:13;5.68;;;3.55;;
54657;SDS011;56972;43.886;20.354;2022-09-02T04:03:41;4.47;;;3.22;;
54657;SDS011;56972;43.886;20.354;2022-09-02T04:06:11;3.83;;;2.85;;
54657;SDS011;56972;43.886;20.354;2022-09-02T04:08:41;4.95;;;3.10;;
54657;SDS011;56972;43.886;20.354;2022-09-02T04:11:09;4.00;;;2.53;;
54657;SDS011;56972;43.886;20.354;2022-09-02T04:13:38;3.75;;;2.70;;
54657;SDS011;56972;43.886;20.354;2022-09-02T04:16:08;3.58;;;2.30;;
54657;SDS011;56972;43.886;20.354;2022-09-02T04:18:36;2.85;;;2.10;;
54657;SDS011;56972;43.886;20.354;2022-09-02T04:21:02;4.97;;;2.47;;
54657;SDS011;56972;43.886;20.354;2022-09-02T04:23:28;7.47;;;2.70;;
54657;SDS011;56972;43.886;20.354;2022-09-02T04:25:54;4.95;;;1.90;;
54657;SDS011;56972;43.886;20.354;2022-09-02T04:28:21;2.92;;;1.73;;
54657;SDS011;56972;43.886;20.354;2022-09-02T04:30:47;5.00;;;2.97;;
54657;SDS011;56972;43.886;20.354;2022-09-02T04:33:13;4.10;;;2.25;;
54657;SDS011;56972;43.886;20.354;2022-09-02T04:35:39;5.80;;;3.10;;
54657;SDS011;56972;43.886;20.354;2022-09-02T04:38:06;3.53;;;2.40;;
54657;SDS011;56972;43.886;20.354;2022-09-02T04:40:32;5.32;;;2.80;;
54657;SDS011;56972;43.886;20.354;2022-09-02T04:42:58;2.05;;;1.70;;
54657;SDS011;56972;43.886;20.354;2022-09-02T04:45:24;5.20;;;2.65;;
54657;SDS011;56972;43.886;20.354;2022-09-02T04:47:50;3.90;;;2.35;;
54657;SDS011;56972;43.886;20.354;2022-09-02T04:50:16;4.43;;;2.55;;
54657;SDS011;56972;43.886;20.354;2022-09-02T04:52:42;3.47;;;2.38;;
54657;SDS011;56972;43.886;20.354;2022-09-02T04:55:08;2.78;;;2.08;;
54657;SDS011;56972;43.886;20.354;2022-09-02T04:57:34;4.13;;;2.40;;
54657;SDS011;56972;43.886;20.354;2022-09-02T05:00:02;3.00;;;2.10;;
54657;SDS011;56972;43.886;20.354;2022-09-02T05:02:31;11.95;;;4.53;;
54657;SDS011;56972;43.886;20.354;2022-09-02T05:04:57;14.95;;;9.52;;
54657;SDS011;56972;43.886;20.354;2022-09-02T05:07:23;15.23;;;10.13;;
54657;SDS011;56972;43.886;20.354;2022-09-02T05:09:49;5.32;;;3.05;;
54657;SDS011;56972;43.886;20.354;2022-09-02T05:12:19;7.68;;;5.55;;
54657;SDS011;56972;43.886;20.354;2022-09-02T05:14:45;12.05;;;8.48;;
54657;SDS011;56972;43.886;20.354;2022-09-02T05:17:13;4.07;;;2.80;;
54657;SDS011;56972;43.886;20.354;2022-09-02T05:19:39;2.75;;;1.75;;
54657;SDS011;56972;43.886;20.354;2022-09-02T05:22:05;3.03;;;2.10;;
54657;SDS011;56972;43.886;20.354;2022-09-02T05:24:31;5.07;;;2.80;;
54657;SDS011;56972;43.886;20.354;2022-09-02T05:26:56;3.60;;;2.47;;
54657;SDS011;56972;43.886;20.354;2022-09-02T05:29:22;4.30;;;2.00;;
54657;SDS011;56972;43.886;20.354;2022-09-02T05:31:48;4.57;;;1.98;;
54657;SDS011;56972;43.886;20.354;2022-09-02T05:34:14;3.90;;;2.45;;
54657;SDS011;56972;43.886;20.354;2022-09-02T05:36:41;5.75;;;2.45;;
54657;SDS011;56972;43.886;20.354;2022-09-02T05:39:08;3.85;;;2.67;;
54657;SDS011;56972;43.886;20.354;2022-09-02T05:41:34;4.65;;;2.58;;
54657;SDS011;56972;43.886;20.354;2022-09-02T05:44:00;6.75;;;2.78;;
54657;SDS011;56972;43.886;20.354;2022-09-02T05:46:28;3.72;;;2.50;;
54657;SDS011;56972;43.886;20.354;2022-09-02T05:48:55;3.30;;;2.05;;
54657;SDS011;56972;43.886;20.354;2022-09-02T05:51:44;6.50;;;2.88;;
54657;SDS011;56972;43.886;20.354;2022-09-02T05:54:14;2.88;;;2.03;;
54657;SDS011;56972;43.886;20.354;2022-09-02T05:56:42;5.60;;;3.15;;
54657;SDS011;56972;43.886;20.354;2022-09-02T05:59:09;4.97;;;3.38;;
54657;SDS011;56972;43.886;20.354;2022-09-02T06:01:36;2.53;;;1.80;;
54657;SDS011;56972;43.886;20.354;2022-09-02T06:04:03;4.30;;;2.28;;
54657;SDS011;56972;43.886;20.354;2022-09-02T06:06:30;5.68;;;3.33;;
54657;SDS011;56972;43.886;20.354;2022-09-02T06:08:57;6.30;;;5.18;;
54657;SDS011;56972;43.886;20.354;2022-09-02T06:11:23;9.57;;;5.10;;
54657;SDS011;56972;43.886;20.354;2022-09-02T06:13:49;8.77;;;5.32;;
54657;SDS011;56972;43.886;20.354;2022-09-02T06:16:18;5.95;;;4.13;;
54657;SDS011;56972;43.886;20.354;2022-09-02T06:18:46;2.35;;;1.63;;
54657;SDS011;56972;43.886;20.354;2022-09-02T06:21:12;5.97;;;3.20;;
54657;SDS011;56972;43.886;20.354;2022-09-02T06:23:38;4.22;;;2.45;;
54657;SDS011;56972;43.886;20.354;2022-09-02T06:26:05;3.35;;;2.70;;
54657;SDS011;56972;43.886;20.354;2022-09-02T06:28:32;7.45;;;4.07;;
54657;SDS011;56972;43.886;20.354;2022-09-02T06:30:59;3.50;;;1.80;;
54657;SDS011;56972;43.886;20.354;2022-09-02T06:33:34;3.13;;;2.22;;
54657;SDS011;56972;43.886;20.354;2022-09-02T06:36:00;2.30;;;1.38;;
54657;SDS011;56972;43.886;20.354;2022-09-02T06:38:26;1.35;;;1.20;;
54657;SDS011;56972;43.886;20.354;2022-09-02T06:40:52;3.97;;;2.83;;
54657;SDS011;56972;43.886;20.354;2022-09-02T06:43:19;9.80;;;6.68;;
54657;SDS011;56972;43.886;20.354;2022-09-02T06:45:45;3.45;;;2.17;;
54657;SDS011;56972;43.886;20.354;2022-09-02T06:48:11;2.80;;;1.92;;
54657;SDS011;56972;43.886;20.354;2022-09-02T06:50:43;5.90;;;2.88;;
54657;SDS011;56972;43.886;20.354;2022-09-02T06:53:10;5.32;;;3.95;;
54657;SDS011;56972;43.886;20.354;2022-09-02T06:55:38;6.88;;;4.90;;
54657;SDS011;56972;43.886;20.354;2022-09-02T06:58:04;10.32;;;7.68;;
54657;SDS011;56972;43.886;20.354;2022-09-02T07:00:31;8.80;;;4.90;;
54657;SDS011;56972;43.886;20.354;2022-09-02T07:02:59;7.38;;;4.60;;
54657;SDS011;56972;43.886;20.354;2022-09-02T07:05:44;5.18;;;3.72;;
54657;SDS011;56972;43.886;20.354;2022-09-02T07:08:10;3.67;;;2.28;;
54657;SDS011;56972;43.886;20.354;2022-09-02T07:10:39;7.85;;;5.97;;
54657;SDS011;56972;43.886;20.354;2022-09-02T07:13:07;5.72;;;4.25;;
54657;SDS011;56972;43.886;20.354;2022-09-02T07:15:33;8.77;;;6.32;;
54657;SDS011;56972;43.886;20.354;2022-09-02T07:17:59;6.97;;;4.05;;
54657;SDS011;56972;43.886;20.354;2022-09-02T07:20:25;4.13;;;2.53;;
54657;SDS011;56972;43.886;20.354;2022-09-02T07:22:52;4.93;;;3.47;;
54657;SDS011;56972;43.886;20.354;2022-09-02T07:25:19;13.35;;;4.18;;
54657;SDS011;56972;43.886;20.354;2022-09-02T07:27:45;2.42;;;1.67;;
54657;SDS011;56972;43.886;20.354;2022-09-02T07:30:11;7.90;;;3.67;;
54657;SDS011;56972;43.886;20.354;2022-09-02T07:32:38;10.52;;;7.72;;
54657;SDS011;56972;43.886;20.354;2022-09-02T07:35:04;4.50;;;2.55;;
54657;SDS011;56972;43.886;20.354;2022-09-02T07:37:31;1.63;;;1.40;;
54657;SDS011;56972;43.886;20.354;2022-09-02T07:39:59;3.95;;;2.55;;
54657;SDS011;56972;43.886;20.354;2022-09-02T07:42:25;2.47;;;1.80;;
54657;SDS011;56972;43.886;20.354;2022-09-02T07:44:51;3.67;;;1.73;;
54657;SDS011;56972;43.886;20.354;2022-09-02T07:47:17;4.60;;;2.92;;
54657;SDS011;56972;43.886;20.354;2022-09-02T07:49:43;3.88;;;2.58;;
54657;SDS011;56972;43.886;20.354;2022-09-02T07:52:09;3.45;;;2.05;;
54657;SDS011;56972;43.886;20.354;2022-09-02T07:54:37;2.33;;;1.67;;
54657;SDS011;56972;43.886;20.354;2022-09-02T07:57:03;4.78;;;2.30;;
54657;SDS011;56972;43.886;20.354;2022-09-02T07:59:30;4.20;;;2.15;;
54657;SDS011;56972;43.886;20.354;2022-09-02T08:01:56;5.03;;;2.78;;
54657;SDS011;56972;43.886;20.354;2022-09-02T08:04:22;4.97;;;2.55;;
54657;SDS011;56972;43.886;20.354;2022-09-02T08:06:49;2.42;;;1.70;;
54657;SDS011;56972;43.886;20.354;2022-09-02T08:09:17;4.07;;;2.28;;
54657;SDS011;56972;43.886;20.354;2022-09-02T08:11:44;3.65;;;2.20;;
54657;SDS011;56972;43.886;20.354;2022-09-02T08:14:13;5.90;;;2.58;;
54657;SDS011;56972;43.886;20.354;2022-09-02T08:16:42;3.13;;;2.13;;
54657;SDS011;56972;43.886;20.354;2022-09-02T08:19:08;2.88;;;2.28;;
54657;SDS011;56972;43.886;20.354;2022-09-02T08:21:35;4.55;;;2.38;;
54657;SDS011;56972;43.886;20.354;2022-09-02T08:24:01;3.72;;;3.00;;
54657;SDS011;56972;43.886;20.354;2022-09-02T08:26:28;2.70;;;1.80;;
54657;SDS011;56972;43.886;20.354;2022-09-02T08:28:54;5.43;;;2.72;;
54657;SDS011;56972;43.886;20.354;2022-09-02T08:31:21;4.60;;;3.47;;
54657;SDS011;56972;43.886;20.354;2022-09-02T08:33:47;2.60;;;1.90;;
54657;SDS011;56972;43.886;20.354;2022-09-02T08:36:13;1.75;;;1.30;;
54657;SDS011;56972;43.886;20.354;2022-09-02T08:38:40;6.43;;;2.53;;
54657;SDS011;56972;43.886;20.354;2022-09-02T08:43:40;4.73;;;2.93;;
54657;SDS011;56972;43.886;20.354;2022-09-02T08:46:07;5.60;;;2.72;;
54657;SDS011;56972;43.886;20.354;2022-09-02T08:48:50;3.08;;;2.10;;
54657;SDS011;56972;43.886;20.354;2022-09-02T08:51:23;4.13;;;2.10;;
54657;SDS011;56972;43.886;20.354;2022-09-02T08:56:26;2.13;;;1.40;;
54657;SDS011;56972;43.886;20.354;2022-09-02T08:58:52;4.82;;;2.47;;
54657;SDS011;56972;43.886;20.354;2022-09-02T09:17:01;2.80;;;2.05;;
54657;SDS011;56972;43.886;20.354;2022-09-02T09:19:46;1.85;;;1.02;;
54657;SDS011;56972;43.886;20.354;2022-09-02T09:22:13;2.03;;;1.50;;
54657;SDS011;56972;43.886;20.354;2022-09-02T09:24:42;5.10;;;1.60;;
54657;SDS011;56972;43.886;20.354;2022-09-02T09:27:19;5.15;;;2.53;;
54657;SDS011;56972;43.886;20.354;2022-09-02T09:29:46;2.30;;;1.63;;
54657;SDS011;56972;43.886;20.354;2022-09-02T09:32:29;2.58;;;1.77;;
54657;SDS011;56972;43.886;20.354;2022-09-02T09:35:10;2.30;;;1.60;;
54657;SDS011;56972;43.886;20.354;2022-09-02T09:37:37;1.60;;;1.27;;
54657;SDS011;56972;43.886;20.354;2022-09-02T09:42:56;2.88;;;1.55;;
54657;SDS011;56972;43.886;20.354;2022-09-02T09:45:33;4.53;;;2.65;;
54657;SDS011;56972;43.886;20.354;2022-09-02T09:50:37;3.95;;;2.42;;
54657;SDS011;56972;43.886;20.354;2022-09-02T09:53:17;5.47;;;3.53;;
54657;SDS011;56972;43.886;20.354;2022-09-02T09:58:47;8.98;;;2.70;;
54657;SDS011;56972;43.886;20.354;2022-09-02T10:03:42;4.95;;;3.17;;
54657;SDS011;56972;43.886;20.354;2022-09-02T10:06:20;4.82;;;3.40;;
54657;SDS011;56972;43.886;20.354;2022-09-02T10:08:51;4.15;;;3.42;;
54657;SDS011;56972;43.886;20.354;2022-09-02T10:11:36;3.67;;;2.60;;
54657;SDS011;56972;43.886;20.354;2022-09-02T10:14:04;4.07;;;2.53;;
54657;SDS011;56972;43.886;20.354;2022-09-02T10:16:52;5.13;;;3.65;;
54657;SDS011;56972;43.886;20.354;2022-09-02T10:19:24;3.78;;;2.83;;
54657;SDS011;56972;43.886;20.354;2022-09-02T10:27:15;9.60;;;7.00;;
54657;SDS011;56972;43.886;20.354;2022-09-02T10:39:56;6.43;;;3.50;;
54657;SDS011;56972;43.886;20.354;2022-09-02T10:42:34;5.50;;;2.55;;
54657;SDS011;56972;43.886;20.354;2022-09-02T10:47:39;3.50;;;2.53;;
54657;SDS011;56972;43.886;20.354;2022-09-02T10:53:42;5.57;;;2.53;;
54657;SDS011;56972;43.886;20.354;2022-09-02T10:58:36;8.38;;;4.28;;
54657;SDS011;56972;43.886;20.354;2022-09-02T11:01:05;8.68;;;5.95;;
54657;SDS011;56972;43.886;20.354;2022-09-02T11:03:32;3.58;;;2.65;;
54657;SDS011;56972;43.886;20.354;2022-09-02T11:06:04;4.72;;;3.25;;
54657;SDS011;56972;43.886;20.354;2022-09-02T11:08:48;4.57;;;3.42;;
54657;SDS011;56972;43.886;20.354;2022-09-02T11:11:36;5.25;;;4.03;;
54657;SDS011;56972;43.886;20.354;2022-09-02T11:16:34;3.97;;;3.05;;
54657;SDS011;56972;43.886;20.354;2022-09-02T11:27:02;4.97;;;4.05;;
54657;SDS011;56972;43.886;20.354;2022-09-02T11:31:59;6.18;;;4.45;;
54657;SDS011;56972;43.886;20.354;2022-09-02T11:37:05;3.05;;;2.35;;
54657;SDS011;56972;43.886;20.354;2022-09-02T11:39:39;5.05;;;3.58;;
54657;SDS011;56972;43.886;20.354;2022-09-02T11:42:49;6.57;;;4.78;;
54657;SDS011;56972;43.886;20.354;2022-09-02T11:47:51;2.72;;;2.20;;
54657;SDS011;56972;43.886;20.354;2022-09-02T11:50:27;3.30;;;2.63;;
54657;SDS011;56972;43.886;20.354;2022-09-02T11:56:03;4.45;;;3.58;;
54657;SDS011;56972;43.886;20.354;2022-09-02T12:03:26;6.55;;;4.53;;
54657;SDS011;56972;43.886;20.354;2022-09-02T12:06:10;6.13;;;4.90;;
54657;SDS011;56972;43.886;20.354;2022-09-02T12:11:08;4.88;;;3.90;;
54657;SDS011;56972;43.886;20.354;2022-09-02T12:13:37;6.50;;;4.40;;
54657;SDS011;56972;43.886;20.354;2022-09-02T12:18:41;5.57;;;3.95;;
54657;SDS011;56972;43.886;20.354;2022-09-02T12:21:08;5.03;;;4.50;;
54657;SDS011;56972;43.886;20.354;2022-09-02T12:26:14;4.35;;;3.67;;
54657;SDS011;56972;43.886;20.354;2022-09-02T12:28:44;9.15;;;6.03;;
54657;SDS011;56972;43.886;20.354;2022-09-02T12:33:45;5.70;;;4.93;;
54657;SDS011;56972;43.886;20.354;2022-09-02T12:47:04;5.93;;;4.78;;
54657;SDS011;56972;43.886;20.354;2022-09-02T12:52:01;7.63;;;6.85;;
54657;SDS011;56972;43.886;20.354;2022-09-02T12:57:07;5.07;;;4.57;;
54657;SDS011;56972;43.886;20.354;2022-09-02T12:59:38;8.00;;;6.00;;
54657;SDS011;56972;43.886;20.354;2022-09-02T13:05:05;8.30;;;4.88;;
54657;SDS011;56972;43.886;20.354;2022-09-02T13:07:58;8.93;;;5.75;;
54657;SDS011;56972;43.886;20.354;2022-09-02T13:18:31;12.00;;;8.75;;
54657;SDS011;56972;43.886;20.354;2022-09-02T13:21:04;5.20;;;4.43;;
54657;SDS011;56972;43.886;20.354;2022-09-02T13:31:20;6.40;;;5.45;;
54657;SDS011;56972;43.886;20.354;2022-09-02T13:33:56;17.98;;;6.38;;
54657;SDS011;56972;43.886;20.354;2022-09-02T13:36:36;7.00;;;5.18;;
54657;SDS011;56972;43.886;20.354;2022-09-02T13:39:13;10.30;;;7.13;;
54657;SDS011;56972;43.886;20.354;2022-09-02T13:41:40;22.85;;;11.27;;
54657;SDS011;56972;43.886;20.354;2022-09-02T13:44:07;6.97;;;4.80;;
54657;SDS011;56972;43.886;20.354;2022-09-02T13:46:41;15.38;;;8.15;;
54657;SDS011;56972;43.886;20.354;2022-09-02T13:49:13;8.40;;;6.85;;
54657;SDS011;56972;43.886;20.354;2022-09-02T13:51:42;6.82;;;5.65;;
54657;SDS011;56972;43.886;20.354;2022-09-02T13:54:09;6.25;;;5.13;;
54657;SDS011;56972;43.886;20.354;2022-09-02T13:56:35;6.43;;;4.45;;
54657;SDS011;56972;43.886;20.354;2022-09-02T13:59:01;6.60;;;5.57;;
54657;SDS011;56972;43.886;20.354;2022-09-02T14:01:32;14.30;;;6.50;;
54657;SDS011;56972;43.886;20.354;2022-09-02T14:04:19;10.32;;;5.20;;
54657;SDS011;56972;43.886;20.354;2022-09-02T14:06:45;15.15;;;7.22;;
54657;SDS011;56972;43.886;20.354;2022-09-02T14:09:24;14.27;;;6.10;;
54657;SDS011;56972;43.886;20.354;2022-09-02T14:11:51;7.70;;;5.50;;
54657;SDS011;56972;43.886;20.354;2022-09-02T14:14:19;10.90;;;6.00;;
54657;SDS011;56972;43.886;20.354;2022-09-02T14:16:46;7.60;;;5.88;;
54657;SDS011;56972;43.886;20.354;2022-09-02T14:21:48;13.40;;;8.32;;
54657;SDS011;56972;43.886;20.354;2022-09-02T14:24:22;10.75;;;8.85;;
54657;SDS011;56972;43.886;20.354;2022-09-02T14:26:49;16.83;;;12.25;;
54657;SDS011;56972;43.886;20.354;2022-09-02T14:29:17;8.63;;;7.20;;
54657;SDS011;56972;43.886;20.354;2022-09-02T14:31:43;12.10;;;8.23;;
54657;SDS011;56972;43.886;20.354;2022-09-02T14:36:54;9.90;;;8.48;;
54657;SDS011;56972;43.886;20.354;2022-09-02T14:39:20;12.82;;;8.85;;
54657;SDS011;56972;43.886;20.354;2022-09-02T14:41:48;12.45;;;10.88;;
54657;SDS011;56972;43.886;20.354;2022-09-02T14:46:44;13.18;;;8.50;;
54657;SDS011;56972;43.886;20.354;2022-09-02T14:49:25;10.00;;;9.00;;
54657;SDS011;56972;43.886;20.354;2022-09-02T14:51:56;13.38;;;10.63;;
54657;SDS011;56972;43.886;20.354;2022-09-02T14:59:53;19.42;;;15.50;;
54657;SDS011;56972;43.886;20.354;2022-09-02T15:04:48;17.65;;;12.95;;
54657;SDS011;56972;43.886;20.354;2022-09-02T15:07:14;20.63;;;15.15;;
54657;SDS011;56972;43.886;20.354;2022-09-02T15:09:40;20.23;;;13.98;;
54657;SDS011;56972;43.886;20.354;2022-09-02T15:12:08;16.80;;;12.07;;
54657;SDS011;56972;43.886;20.354;2022-09-02T15:14:35;15.35;;;13.65;;
54657;SDS011;56972;43.886;20.354;2022-09-02T15:17:01;17.27;;;12.95;;
54657;SDS011;56972;43.886;20.354;2022-09-02T15:19:28;20.25;;;13.13;;
54657;SDS011;56972;43.886;20.354;2022-09-02T15:21:54;21.63;;;15.35;;
54657;SDS011;56972;43.886;20.354;2022-09-02T15:24:20;22.52;;;12.23;;
54657;SDS011;56972;43.886;20.354;2022-09-02T15:26:46;15.10;;;10.70;;
54657;SDS011;56972;43.886;20.354;2022-09-02T15:29:12;15.98;;;12.90;;
54657;SDS011;56972;43.886;20.354;2022-09-02T15:31:39;17.33;;;11.75;;
54657;SDS011;56972;43.886;20.354;2022-09-02T15:34:05;14.52;;;11.50;;
54657;SDS011;56972;43.886;20.354;2022-09-02T15:36:31;15.43;;;11.38;;
54657;SDS011;56972;43.886;20.354;2022-09-02T15:38:57;16.92;;;11.77;;
54657;SDS011;56972;43.886;20.354;2022-09-02T15:41:24;11.32;;;9.48;;
54657;SDS011;56972;43.886;20.354;2022-09-02T15:43:51;21.75;;;11.85;;
54657;SDS011;56972;43.886;20.354;2022-09-02T15:46:19;15.05;;;10.75;;
54657;SDS011;56972;43.886;20.354;2022-09-02T15:48:45;13.50;;;11.48;;
54657;SDS011;56972;43.886;20.354;2022-09-02T15:51:12;17.85;;;13.20;;
54657;SDS011;56972;43.886;20.354;2022-09-02T15:53:38;14.68;;;11.95;;
54657;SDS011;56972;43.886;20.354;2022-09-02T15:56:05;21.10;;;12.15;;
54657;SDS011;56972;43.886;20.354;2022-09-02T15:58:39;13.05;;;11.05;;
54657;SDS011;56972;43.886;20.354;2022-09-02T16:01:05;17.02;;;13.82;;
54657;SDS011;56972;43.886;20.354;2022-09-02T16:03:31;15.15;;;11.20;;
54657;SDS011;56972;43.886;20.354;2022-09-02T16:06:01;15.93;;;11.45;;
54657;SDS011;56972;43.886;20.354;2022-09-02T16:08:27;14.95;;;11.90;;
54657;SDS011;56972;43.886;20.354;2022-09-02T16:10:53;11.50;;;8.80;;
54657;SDS011;56972;43.886;20.354;2022-09-02T16:13:19;11.07;;;9.35;;
54657;SDS011;56972;43.886;20.354;2022-09-02T16:15:45;9.65;;;7.00;;
54657;SDS011;56972;43.886;20.354;2022-09-02T16:18:12;8.98;;;7.13;;
54657;SDS011;56972;43.886;20.354;2022-09-02T16:20:38;6.80;;;5.72;;
54657;SDS011;56972;43.886;20.354;2022-09-02T16:23:04;13.02;;;5.63;;
54657;SDS011;56972;43.886;20.354;2022-09-02T16:25:30;16.40;;;6.60;;
54657;SDS011;56972;43.886;20.354;2022-09-02T16:27:56;8.00;;;6.68;;
54657;SDS011;56972;43.886;20.354;2022-09-02T16:30:22;12.85;;;7.53;;
54657;SDS011;56972;43.886;20.354;2022-09-02T16:32:49;7.80;;;6.25;;
54657;SDS011;56972;43.886;20.354;2022-09-02T16:35:15;12.43;;;7.25;;
54657;SDS011;56972;43.886;20.354;2022-09-02T16:37:41;10.45;;;7.38;;
54657;SDS011;56972;43.886;20.354;2022-09-02T16:40:08;17.70;;;13.00;;
54657;SDS011;56972;43.886;20.354;2022-09-02T16:42:34;11.57;;;6.88;;
54657;SDS011;56972;43.886;20.354;2022-09-02T16:45:00;12.50;;;8.50;;
54657;SDS011;56972;43.886;20.354;2022-09-02T16:47:26;10.82;;;7.10;;
54657;SDS011;56972;43.886;20.354;2022-09-02T16:49:52;9.15;;;7.00;;
54657;SDS011;56972;43.886;20.354;2022-09-02T16:52:18;12.65;;;7.28;;
54657;SDS011;56972;43.886;20.354;2022-09-02T16:54:44;9.20;;;7.15;;
54657;SDS011;56972;43.886;20.354;2022-09-02T16:57:10;11.65;;;8.13;;
54657;SDS011;56972;43.886;20.354;2022-09-02T16:59:36;8.38;;;7.03;;